createdAt,value
2019-02-07T02:09:39.445Z,11.39
2019-02-07T02:10:39.438Z,8.69
2019-02-07T02:12:39.430Z,9.50
2019-02-07T02:13:39.426Z,9.19
2019-02-07T02:14:39.423Z,8.39
2019-02-07T02:15:39.427Z,10.19
2019-02-07T02:16:39.420Z,10.60
2019-02-07T02:17:39.422Z,8.50
2019-02-07T02:18:39.417Z,9.19
2019-02-07T02:19:39.417Z,8.50
2019-02-07T02:20:39.413Z,8.50
2019-02-07T02:21:39.403Z,8.69
2019-02-07T02:22:39.401Z,9.69
2019-02-07T02:23:39.401Z,7.80
2019-02-07T02:24:39.390Z,8.10
2019-02-07T02:25:39.388Z,8.80
2019-02-07T02:26:39.385Z,9.69
2019-02-07T02:27:39.386Z,10.50
2019-02-07T02:28:39.371Z,9.30
2019-02-07T02:29:39.365Z,10.50
2019-02-07T02:30:39.366Z,8.60
2019-02-07T02:31:39.364Z,9.00
2019-02-07T02:32:39.352Z,8.30
2019-02-07T02:33:39.345Z,10.00
2019-02-07T02:34:39.346Z,7.90
2019-02-07T02:35:39.420Z,9.50
2019-02-07T02:36:39.337Z,9.30
2019-02-07T02:37:39.337Z,8.50
2019-02-07T02:38:39.434Z,8.50
2019-02-07T02:39:39.432Z,8.10
2019-02-07T02:40:39.318Z,8.10
2019-02-07T02:41:39.311Z,8.60
2019-02-07T02:43:08.017Z,10.89
2019-02-07T02:44:07.895Z,10.30
2019-02-07T02:45:07.872Z,8.60
2019-02-07T02:46:07.850Z,9.19
2019-02-07T02:47:07.829Z,7.90
2019-02-07T02:48:07.810Z,8.50
2019-02-07T02:49:07.790Z,8.60
2019-02-07T02:50:07.766Z,9.10
2019-02-07T02:51:07.746Z,8.60
2019-02-07T02:52:07.722Z,9.10
2019-02-07T02:53:07.702Z,8.80
2019-02-07T02:54:07.682Z,8.69
2019-02-07T02:55:07.675Z,8.89
2019-02-07T02:56:07.651Z,8.69
2019-02-07T02:57:07.633Z,8.50
2019-02-07T02:58:07.622Z,8.50
2019-02-07T02:59:07.602Z,9.30
2019-02-07T03:00:07.586Z,10.30
2019-02-07T03:01:07.645Z,9.00
2019-02-07T03:02:07.652Z,8.39
2019-02-07T03:03:07.539Z,10.00
2019-02-07T03:04:07.628Z,8.30
2019-02-07T03:05:07.511Z,9.50
2019-02-07T03:06:07.498Z,9.10
2019-02-07T03:07:07.490Z,8.60
2019-02-07T03:08:07.470Z,8.60
2019-02-07T03:09:07.453Z,8.89
2019-02-07T03:10:07.434Z,9.60
2019-02-07T03:11:07.416Z,10.80
2019-02-07T03:12:07.395Z,10.10
2019-02-07T03:13:07.381Z,10.10
2019-02-07T03:14:07.364Z,10.69
2019-02-07T03:15:07.368Z,10.10
2019-02-07T03:16:07.328Z,9.00
2019-02-07T03:17:07.314Z,11.19
2019-02-07T03:18:07.298Z,9.19
2019-02-07T03:19:07.277Z,8.89
2019-02-07T03:20:07.263Z,10.89
2019-02-07T03:21:07.243Z,9.60
2019-02-07T03:22:07.229Z,10.39
2019-02-07T03:23:07.211Z,10.00
2019-02-07T03:24:07.193Z,9.69
2019-02-07T03:25:07.177Z,9.80
2019-02-07T03:26:07.158Z,10.60
2019-02-07T03:27:07.140Z,9.89
2019-02-07T03:28:07.128Z,11.00
2019-02-07T03:29:07.111Z,10.30
2019-02-07T03:30:07.098Z,10.60
2019-02-07T03:31:07.085Z,9.80
2019-02-07T03:32:07.070Z,10.80
2019-02-07T03:33:07.047Z,9.89
2019-02-07T03:34:07.026Z,10.19
2019-02-07T03:35:07.011Z,10.10
2019-02-07T03:36:06.994Z,10.39
2019-02-07T03:37:06.982Z,9.69
2019-02-07T03:38:06.964Z,11.00
2019-02-07T03:39:07.198Z,11.19
2019-02-07T03:40:06.927Z,9.89
2019-02-07T03:41:06.911Z,10.30
2019-02-07T03:42:06.894Z,10.39
2019-02-07T03:43:06.876Z,10.80
2019-02-07T03:44:06.864Z,11.00
2019-02-07T03:45:06.853Z,11.19
2019-02-07T03:46:06.834Z,9.89
2019-02-07T03:47:06.818Z,9.80
2019-02-07T03:48:06.807Z,10.10
2019-02-07T03:49:06.792Z,9.69
2019-02-07T03:50:06.893Z,9.19
2019-02-07T03:51:06.763Z,9.80
2019-02-07T03:52:06.746Z,10.19
2019-02-07T03:53:06.734Z,10.00
2019-02-07T03:54:06.719Z,11.60
2019-02-07T03:55:06.766Z,10.30
2019-02-07T03:56:06.686Z,10.69
2019-02-07T03:57:06.762Z,10.50
2019-02-07T03:58:06.651Z,9.69
2019-02-07T03:59:06.727Z,10.69
2019-02-07T04:00:06.620Z,10.19
2019-02-07T04:01:06.604Z,10.39
2019-02-07T04:02:06.586Z,10.39
2019-02-07T04:03:06.573Z,9.80
2019-02-07T04:04:06.655Z,10.00
2019-02-07T04:05:06.545Z,10.19
2019-02-07T04:06:06.621Z,10.10
2019-02-07T04:07:06.610Z,11.50
2019-02-07T04:08:06.492Z,10.19
2019-02-07T04:09:06.478Z,10.30
2019-02-07T04:10:06.554Z,10.00
2019-02-07T04:11:06.451Z,9.60
2019-02-07T04:12:06.530Z,9.89
2019-02-07T04:13:06.424Z,10.69
2019-02-07T04:14:06.503Z,10.39
2019-02-07T04:15:06.486Z,10.30
2019-02-07T04:16:14.797Z,9.50
2019-02-07T04:17:07.555Z,9.89
2019-02-07T04:18:06.432Z,9.80
2019-02-07T04:19:06.418Z,10.10
2019-02-07T04:20:06.394Z,9.60
2019-02-07T04:21:06.389Z,10.30
2019-02-07T04:22:06.367Z,10.10
2019-02-07T04:23:06.349Z,10.19
2019-02-07T04:24:06.326Z,11.00
2019-02-07T04:25:06.306Z,10.00
2019-02-07T04:26:06.192Z,10.19
2019-02-07T04:27:06.270Z,11.10
2019-02-07T04:28:06.153Z,10.39
2019-02-07T04:29:06.133Z,10.19
2019-02-07T04:30:06.114Z,10.80
2019-02-07T04:31:06.093Z,10.00
2019-02-07T04:32:06.072Z,10.39
2019-02-07T04:33:06.054Z,10.19
2019-02-07T04:34:06.025Z,11.10
2019-02-07T04:35:05.999Z,11.00
2019-02-07T04:36:05.978Z,10.69
2019-02-07T04:37:05.956Z,10.30
2019-02-07T04:38:05.933Z,10.30
2019-02-07T04:39:06.012Z,9.69
2019-02-07T04:40:05.992Z,9.50
2019-02-07T04:41:05.874Z,9.30
2019-02-07T04:42:05.936Z,10.00
2019-02-07T04:43:05.915Z,10.39
2019-02-07T04:44:05.795Z,9.60
2019-02-07T04:45:05.867Z,10.10
2019-02-07T04:46:05.839Z,9.69
2019-02-07T04:47:05.822Z,10.19
2019-02-07T04:48:05.699Z,9.89
2019-02-07T04:49:05.775Z,11.10
2019-02-07T04:50:05.754Z,10.50
2019-02-07T04:51:05.730Z,10.19
2019-02-07T04:52:05.711Z,10.60
2019-02-07T04:53:05.689Z,10.00
2019-02-07T04:54:05.664Z,11.10
2019-02-07T04:55:05.559Z,10.69
2019-02-07T04:56:05.614Z,9.50
2019-02-07T04:57:05.596Z,10.39
2019-02-07T04:58:05.572Z,10.60
2019-02-07T04:59:05.461Z,10.60
2019-02-07T05:00:05.433Z,9.69
2019-02-07T05:01:05.411Z,9.39
2019-02-07T05:02:05.495Z,10.50
2019-02-07T05:03:05.464Z,9.19
2019-02-07T05:04:05.351Z,9.80
2019-02-07T05:05:05.425Z,9.19
2019-02-07T05:06:05.399Z,10.39
2019-02-07T05:07:05.376Z,10.19
2019-02-07T05:08:05.349Z,9.80
2019-02-07T05:09:05.329Z,8.69
2019-02-07T05:10:05.309Z,9.69
2019-02-07T05:11:05.290Z,10.30
2019-02-07T05:12:05.273Z,8.50
2019-02-07T05:13:05.253Z,9.10
2019-02-07T05:14:05.184Z,10.19
2019-02-07T05:15:05.215Z,9.60
2019-02-07T05:16:05.094Z,10.19
2019-02-07T05:17:05.164Z,9.80
2019-02-07T05:18:05.141Z,9.30
2019-02-07T05:19:05.115Z,9.39
2019-02-07T05:20:05.097Z,9.39
2019-02-07T05:21:05.071Z,9.10
2019-02-07T05:22:05.050Z,8.80
2019-02-07T05:23:04.934Z,9.69
2019-02-07T05:24:05.008Z,10.60
2019-02-07T05:25:04.981Z,9.80
2019-02-07T05:26:04.993Z,9.69
2019-02-07T05:27:04.931Z,9.19
2019-02-07T05:28:04.917Z,9.89
2019-02-07T05:29:04.894Z,9.19
2019-02-07T05:30:04.874Z,8.60
2019-02-07T05:31:04.859Z,9.10
2019-02-07T05:32:04.840Z,10.30
2019-02-07T05:33:04.826Z,9.39
2019-02-07T05:34:04.805Z,8.89
2019-02-07T05:35:04.800Z,8.89
2019-02-07T05:36:04.770Z,9.69
2019-02-07T05:37:04.757Z,9.10
2019-02-07T05:38:04.729Z,9.10
2019-02-07T05:39:04.706Z,8.30
2019-02-07T05:40:04.694Z,9.60
2019-02-07T05:41:04.911Z,9.69
2019-02-07T05:42:04.635Z,9.50
2019-02-07T05:43:04.608Z,8.60
2019-02-07T05:44:04.492Z,9.19
2019-02-07T05:45:04.556Z,9.80
2019-02-07T05:46:04.535Z,9.19
2019-02-07T05:47:04.518Z,9.00
2019-02-07T05:48:04.493Z,9.80
2019-02-07T05:49:04.471Z,9.69
2019-02-07T05:50:04.451Z,9.10
2019-02-07T05:51:04.431Z,8.69
2019-02-07T05:52:04.404Z,8.39
2019-02-07T05:53:04.378Z,8.10
2019-02-07T05:54:04.357Z,8.39
2019-02-07T05:55:04.333Z,9.50
2019-02-07T05:56:04.310Z,9.50
2019-02-07T05:57:04.354Z,8.39
2019-02-07T05:58:04.256Z,9.10
2019-02-07T05:59:04.229Z,9.60
2019-02-07T06:00:04.202Z,8.00
2019-02-07T06:01:04.177Z,9.89
2019-02-07T06:02:04.152Z,8.30
2019-02-07T06:03:04.128Z,8.19
2019-02-07T06:04:04.108Z,8.80
2019-02-07T06:05:04.187Z,8.10
2019-02-07T06:06:04.058Z,8.50
2019-02-07T06:07:04.036Z,8.80
2019-02-07T06:08:04.010Z,10.60
2019-02-07T06:09:03.983Z,9.10
2019-02-07T06:10:04.061Z,9.60
2019-02-07T06:11:03.938Z,8.80
2019-02-07T06:12:03.917Z,8.50
2019-02-07T06:13:03.901Z,8.10
2019-02-07T06:14:03.866Z,9.89
2019-02-07T06:15:03.944Z,9.39
2019-02-07T06:16:03.826Z,9.10
2019-02-07T06:17:03.710Z,9.19
2019-02-07T06:18:03.780Z,9.30
2019-02-07T06:19:03.753Z,9.60
2019-02-07T06:20:03.728Z,8.30
2019-02-07T06:21:03.703Z,9.50
2019-02-07T06:22:03.641Z,9.80
2019-02-07T06:23:03.670Z,9.19
2019-02-07T06:24:03.641Z,9.19
2019-02-07T06:25:03.624Z,9.69
2019-02-07T06:26:03.589Z,9.39
2019-02-07T06:27:03.565Z,8.80
2019-02-07T06:28:03.537Z,9.10
2019-02-07T06:29:03.515Z,9.19
2019-02-07T06:30:03.491Z,8.39
2019-02-07T06:31:03.472Z,9.89
2019-02-07T06:32:03.446Z,9.19
2019-02-07T06:33:03.428Z,9.89
2019-02-07T06:34:03.403Z,8.89
2019-02-07T06:35:03.380Z,8.39
2019-02-07T06:36:03.358Z,9.30
2019-02-07T06:37:03.336Z,10.19
2019-02-07T06:38:03.311Z,9.69
2019-02-07T06:39:03.288Z,8.60
2019-02-07T06:40:03.268Z,9.69
2019-02-07T06:41:03.249Z,10.10
2019-02-07T06:42:03.325Z,9.19
2019-02-07T06:43:03.210Z,9.19
2019-02-07T06:44:03.187Z,8.50
2019-02-07T06:45:05.988Z,9.39
2019-02-07T06:46:03.141Z,9.00
2019-02-07T06:47:13.012Z,8.89
2019-02-07T06:48:04.268Z,9.50
2019-02-07T06:49:03.078Z,9.60
2019-02-07T06:50:03.059Z,10.10
2019-02-07T06:51:03.031Z,9.30
2019-02-07T06:52:03.007Z,10.00
2019-02-07T06:53:02.990Z,10.19
2019-02-07T06:54:02.977Z,9.60
2019-02-07T06:55:05.070Z,8.80
2019-02-07T06:56:02.934Z,9.00
2019-02-07T06:57:02.915Z,10.19
2019-02-07T06:58:02.888Z,10.19
2019-02-07T06:59:02.869Z,9.50
2019-02-07T07:00:02.847Z,9.80
2019-02-07T07:01:02.828Z,9.60
2019-02-07T07:02:02.805Z,11.10
2019-02-07T07:03:02.778Z,9.80
2019-02-07T07:04:02.758Z,9.39
2019-02-07T07:05:02.735Z,10.69
2019-02-07T07:06:02.710Z,10.19
2019-02-07T07:07:02.686Z,10.80
2019-02-07T07:08:02.669Z,9.00
2019-02-07T07:09:02.647Z,10.60
2019-02-07T07:10:02.630Z,9.39
2019-02-07T07:11:02.604Z,10.00
2019-02-07T07:12:02.589Z,9.89
2019-02-07T07:13:02.558Z,10.60
2019-02-07T07:14:02.537Z,9.80
2019-02-07T07:15:02.519Z,10.60
2019-02-07T07:16:02.490Z,10.50
2019-02-07T07:17:02.474Z,9.69
2019-02-07T07:18:02.449Z,10.00
2019-02-07T07:19:02.429Z,9.89
2019-02-07T07:20:02.412Z,10.10
2019-02-07T07:21:02.396Z,11.39
2019-02-07T07:22:02.380Z,10.69
2019-02-07T07:23:02.353Z,9.30
2019-02-07T07:24:02.325Z,9.69
2019-02-07T07:25:02.306Z,11.00
2019-02-07T07:26:02.289Z,10.30
2019-02-07T07:27:02.269Z,10.00
2019-02-07T07:28:02.249Z,10.39
2019-02-07T07:29:02.232Z,10.10
2019-02-07T07:30:02.214Z,10.69
2019-02-07T07:31:02.195Z,11.30
2019-02-07T07:32:02.166Z,11.19
2019-02-07T07:33:02.142Z,10.30
2019-02-07T07:34:02.119Z,10.50
2019-02-07T07:35:02.095Z,11.50
2019-02-07T07:36:02.074Z,12.10
2019-02-07T07:37:02.053Z,12.19
2019-02-07T07:38:02.027Z,13.00
2019-02-07T07:39:02.003Z,13.10
2019-02-07T07:40:01.984Z,12.89
2019-02-07T07:41:01.961Z,12.19
2019-02-07T07:42:01.938Z,13.69
2019-02-07T07:43:02.315Z,12.19
2019-02-07T07:44:01.897Z,12.80
2019-02-07T07:45:01.875Z,14.69
2019-02-07T07:46:01.858Z,14.30
2019-02-07T07:47:01.829Z,12.69
2019-02-07T07:48:01.805Z,13.80
2019-02-07T07:49:01.784Z,13.00
2019-02-07T07:50:01.763Z,13.60
2019-02-07T07:51:01.741Z,12.60
2019-02-07T07:52:01.718Z,13.30
2019-02-07T07:53:01.698Z,13.30
2019-02-07T07:54:01.673Z,14.89
2019-02-07T07:55:01.654Z,14.10
2019-02-07T07:56:01.629Z,13.69
2019-02-07T07:57:01.606Z,13.00
2019-02-07T07:58:01.575Z,14.10
2019-02-07T07:59:01.550Z,14.89
2019-02-07T08:00:01.531Z,12.60
2019-02-07T08:01:01.501Z,15.30
2019-02-07T08:02:01.469Z,15.89
2019-02-07T08:03:01.446Z,13.89
2019-02-07T08:04:01.422Z,14.60
2019-02-07T08:05:01.395Z,14.30
2019-02-07T08:06:01.368Z,14.39
2019-02-07T08:07:01.338Z,13.89
2019-02-07T08:08:01.312Z,14.39
2019-02-07T08:09:01.287Z,15.00
2019-02-07T08:10:01.261Z,14.19
2019-02-07T08:11:01.234Z,15.10
2019-02-07T08:12:01.207Z,16.20
2019-02-07T08:13:01.187Z,14.80
2019-02-07T08:14:01.159Z,14.69
2019-02-07T08:15:01.137Z,14.00
2019-02-07T08:16:01.119Z,15.30
2019-02-07T08:17:01.090Z,14.39
2019-02-07T08:18:01.061Z,14.60
2019-02-07T08:19:01.035Z,15.89
2019-02-07T08:20:01.007Z,16.70
2019-02-07T08:21:00.978Z,20.20
2019-02-07T08:22:00.952Z,21.29
2019-02-07T08:23:00.918Z,19.00
2019-02-07T08:24:00.895Z,20.00
2019-02-07T08:25:00.867Z,18.29
2019-02-07T08:26:00.838Z,21.29
2019-02-07T08:27:00.727Z,19.10
2019-02-07T08:28:00.786Z,20.29
2019-02-07T08:29:00.754Z,25.10
2019-02-07T08:30:00.722Z,27.79
2019-02-07T08:31:00.694Z,46.70
2019-02-07T08:32:00.662Z,38.70
2019-02-07T08:33:00.633Z,23.79
2019-02-07T08:34:00.600Z,20.60
2019-02-07T08:35:00.567Z,24.00
2019-02-07T08:36:00.539Z,22.29
2019-02-07T08:37:00.503Z,23.39
2019-02-07T08:38:00.475Z,19.50
2019-02-07T08:39:00.344Z,21.60
2019-02-07T08:40:00.440Z,21.10
2019-02-07T08:41:00.379Z,17.60
2019-02-07T08:42:00.353Z,23.89
2019-02-07T08:43:00.324Z,18.50
2019-02-07T08:44:00.633Z,20.50
2019-02-07T08:45:00.375Z,22.20
2019-02-07T08:46:00.213Z,19.29
2019-02-07T08:47:00.184Z,23.39
2019-02-07T08:48:00.136Z,20.39
2019-02-07T08:49:01.101Z,27.89
2019-02-07T08:50:00.252Z,21.20
2019-02-07T08:51:00.031Z,19.00
2019-02-07T08:52:00.018Z,20.10
2019-02-07T08:52:59.957Z,21.00
2019-02-07T08:53:59.922Z,18.39
2019-02-07T08:54:59.892Z,21.39
2019-02-07T08:55:59.849Z,19.70
2019-02-07T08:56:59.820Z,16.79
2019-02-07T08:57:59.789Z,21.00
2019-02-07T08:58:59.768Z,19.79
2019-02-07T08:59:59.720Z,20.79
2019-02-07T09:00:59.696Z,20.79
2019-02-07T09:01:59.760Z,19.89
2019-02-07T09:02:59.625Z,23.39
2019-02-07T09:03:59.993Z,17.00
2019-02-07T09:04:59.557Z,18.50
2019-02-07T09:05:59.520Z,19.20
2019-02-07T09:06:59.490Z,22.39
2019-02-07T09:07:59.459Z,16.70
2019-02-07T09:08:59.435Z,20.70
2019-02-07T09:09:59.403Z,18.60
2019-02-07T09:10:59.371Z,19.29
2019-02-07T09:11:59.332Z,19.39
2019-02-07T09:12:59.294Z,20.79
2019-02-07T09:13:59.269Z,17.00
2019-02-07T09:14:59.230Z,17.60
2019-02-07T09:15:59.192Z,18.29
2019-02-07T09:16:59.154Z,17.20
2019-02-07T09:18:09.611Z,17.70
2019-02-07T09:19:00.187Z,19.00
2019-02-07T09:19:59.049Z,19.70
2019-02-07T09:20:59.010Z,20.70
2019-02-07T09:21:58.974Z,19.10
2019-02-07T09:22:58.934Z,16.00
2019-02-07T09:23:58.901Z,17.00
2019-02-07T09:24:58.863Z,16.89
2019-02-07T09:29:27.671Z,17.70
2019-02-07T09:30:27.569Z,16.10
2019-02-07T09:31:27.567Z,17.00
2019-02-07T09:32:27.563Z,15.89
2019-02-07T09:33:27.561Z,17.60
2019-02-07T09:34:27.546Z,16.89
2019-02-07T09:35:27.540Z,19.39
2019-02-07T09:36:27.547Z,23.00
2019-02-07T09:37:27.537Z,18.29
2019-02-07T09:38:27.534Z,20.70
2019-02-07T09:39:27.526Z,20.10
2019-02-07T09:40:27.517Z,18.10
2019-02-07T09:41:27.511Z,18.10
2019-02-07T09:42:27.505Z,15.80
2019-02-07T09:43:27.501Z,20.29
2019-02-07T09:44:27.498Z,18.79
2019-02-07T09:45:27.499Z,17.39
2019-02-07T09:46:27.495Z,17.00
2019-02-07T09:47:27.493Z,18.10
2019-02-07T09:48:27.497Z,16.10
2019-02-07T09:49:27.490Z,19.39
2019-02-07T09:50:27.483Z,17.20
2019-02-07T09:51:27.481Z,19.20
2019-02-07T09:52:27.479Z,19.89
2019-02-07T09:53:27.476Z,19.00
2019-02-07T09:54:27.474Z,19.50
2019-02-07T09:55:27.475Z,16.50
2019-02-07T09:56:27.475Z,19.39
2019-02-07T09:57:27.475Z,17.50
2019-02-07T09:58:27.477Z,16.39
2019-02-07T09:59:27.475Z,15.69
2019-02-07T10:00:27.479Z,16.29
2019-02-07T10:01:27.474Z,16.29
2019-02-07T10:02:27.467Z,17.39
2019-02-07T10:03:27.566Z,14.80
2019-02-07T10:04:27.568Z,14.80
2019-02-07T10:05:27.466Z,17.10
2019-02-07T10:06:27.458Z,18.29
2019-02-07T10:07:27.459Z,19.20
2019-02-07T10:08:27.459Z,16.60
2019-02-07T10:09:27.453Z,17.10
2019-02-07T10:10:27.454Z,15.89
2019-02-07T10:11:27.455Z,15.39
2019-02-07T10:12:27.453Z,15.10
2019-02-07T10:13:27.458Z,16.89
2019-02-07T10:14:27.459Z,16.50
2019-02-07T10:15:27.463Z,15.19
2019-02-07T10:16:27.456Z,15.30
2019-02-07T10:17:27.458Z,16.20
2019-02-07T10:18:33.207Z,16.00
2019-02-07T10:19:28.557Z,15.60
2019-02-07T10:20:27.458Z,15.50
2019-02-07T10:21:27.457Z,15.30
2019-02-07T10:22:27.464Z,14.69
2019-02-07T10:23:27.466Z,15.30
2019-02-07T10:24:27.463Z,14.80
2019-02-07T10:25:27.460Z,16.00
2019-02-07T10:26:27.480Z,15.80
2019-02-07T10:27:27.459Z,15.50
2019-02-07T10:28:27.454Z,14.50
2019-02-07T10:29:27.555Z,15.00
2019-02-07T10:30:27.554Z,17.79
2019-02-07T10:31:27.448Z,15.19
2019-02-07T10:32:27.447Z,15.89
2019-02-07T10:33:27.446Z,14.39
2019-02-07T10:34:27.450Z,15.80
2019-02-07T10:35:27.446Z,15.19
2019-02-07T10:36:27.445Z,14.39
2019-02-07T10:37:27.447Z,14.19
2019-02-07T10:38:27.444Z,14.19
2019-02-07T10:39:27.500Z,14.80
2019-02-07T10:40:27.441Z,14.89
2019-02-07T10:41:27.443Z,15.39
2019-02-07T10:42:27.439Z,14.10
2019-02-07T10:43:27.437Z,14.69
2019-02-07T10:44:27.441Z,14.30
2019-02-07T10:45:27.435Z,13.50
2019-02-07T10:46:27.439Z,15.30
2019-02-07T10:47:30.053Z,14.00
2019-02-07T10:48:27.438Z,14.19
2019-02-07T10:49:27.441Z,14.00
2019-02-07T10:50:27.444Z,16.20
2019-02-07T10:51:27.451Z,14.50
2019-02-07T10:52:27.456Z,15.69
2019-02-07T10:53:27.455Z,16.89
2019-02-07T10:54:27.456Z,14.69
2019-02-07T10:55:27.466Z,14.69
2019-02-07T10:56:27.467Z,14.00
2019-02-07T10:57:27.466Z,14.89
2019-02-07T10:58:27.466Z,14.80
2019-02-07T10:59:27.474Z,16.20
2019-02-07T11:00:27.473Z,15.39
2019-02-07T11:01:27.477Z,13.80
2019-02-07T11:02:27.476Z,13.60
2019-02-07T11:03:27.479Z,15.39
2019-02-07T11:04:27.478Z,13.89
2019-02-07T11:05:27.484Z,14.30
2019-02-07T11:06:27.488Z,14.10
2019-02-07T11:07:27.483Z,15.30
2019-02-07T11:08:27.484Z,14.39
2019-02-07T11:09:27.483Z,14.80
2019-02-07T11:10:27.480Z,14.00
2019-02-07T11:11:27.485Z,14.60
2019-02-07T11:12:27.479Z,12.89
2019-02-07T11:13:27.477Z,14.30
2019-02-07T11:14:27.476Z,14.10
2019-02-07T11:15:27.479Z,14.30
2019-02-07T11:16:27.474Z,13.60
2019-02-07T11:17:27.473Z,14.50
2019-02-07T11:18:27.575Z,14.00
2019-02-07T11:19:27.478Z,14.00
2019-02-07T11:20:27.483Z,14.10
2019-02-07T11:21:27.479Z,14.39
2019-02-07T11:22:27.481Z,13.80
2019-02-07T11:23:27.477Z,15.19
2019-02-07T11:24:27.477Z,14.00
2019-02-07T11:25:27.476Z,14.10
2019-02-07T11:26:27.475Z,13.69
2019-02-07T11:27:27.477Z,14.80
2019-02-07T11:28:27.482Z,14.80
2019-02-07T11:29:27.585Z,15.60
2019-02-07T11:30:27.595Z,14.00
2019-02-07T11:31:27.495Z,15.50
2019-02-07T11:32:27.504Z,14.89
2019-02-07T11:33:27.509Z,14.89
2019-02-07T11:34:27.517Z,13.39
2019-02-07T11:35:27.526Z,14.80
2019-02-07T11:36:27.529Z,14.30
2019-02-07T11:37:27.536Z,15.10
2019-02-07T11:38:27.546Z,14.00
2019-02-07T11:39:29.641Z,14.19
2019-02-07T11:40:27.558Z,12.80
2019-02-07T11:41:27.566Z,14.30
2019-02-07T11:42:27.573Z,14.39
2019-02-07T11:43:27.574Z,13.80
2019-02-07T11:44:27.570Z,14.50
2019-02-07T11:45:27.571Z,15.60
2019-02-07T11:46:27.578Z,15.00
2019-02-07T11:47:27.574Z,14.60
2019-02-07T11:48:27.675Z,14.39
2019-02-07T11:49:27.585Z,13.69
2019-02-07T11:50:27.783Z,14.10
2019-02-07T11:51:27.577Z,14.60
2019-02-07T11:52:27.577Z,14.50
2019-02-07T11:53:27.573Z,13.89
2019-02-07T11:54:27.577Z,14.19
2019-02-07T11:55:27.580Z,14.30
2019-02-07T11:56:27.576Z,13.30
2019-02-07T11:57:27.582Z,16.00
2019-02-07T11:58:27.642Z,14.19
2019-02-07T11:59:27.594Z,14.19
2019-02-07T12:00:27.595Z,14.89
2019-02-07T12:01:27.701Z,14.10
2019-02-07T12:02:27.601Z,15.00
2019-02-07T12:03:27.599Z,14.89
2019-02-07T12:04:27.700Z,14.80
2019-02-07T12:05:27.605Z,14.00
2019-02-07T12:06:27.611Z,15.69
2019-02-07T12:07:27.619Z,14.80
2019-02-07T12:08:27.622Z,15.60
2019-02-07T12:09:27.624Z,14.80
2019-02-07T12:10:27.627Z,14.30
2019-02-07T12:11:27.635Z,15.00
2019-02-07T12:12:27.637Z,14.00
2019-02-07T12:13:27.644Z,14.69
2019-02-07T12:14:27.645Z,15.00
2019-02-07T12:15:27.650Z,14.89
2019-02-07T12:16:27.655Z,15.30
2019-02-07T12:17:27.657Z,14.39
2019-02-07T12:18:27.668Z,13.80
2019-02-07T12:19:27.675Z,15.00
2019-02-07T12:20:27.678Z,14.60
2019-02-07T12:21:27.683Z,13.39
2019-02-07T12:22:27.707Z,15.89
2019-02-07T12:23:27.696Z,14.69
2019-02-07T12:24:27.777Z,15.00
2019-02-07T12:25:27.708Z,14.60
2019-02-07T12:26:27.719Z,14.19
2019-02-07T12:27:27.724Z,15.10
2019-02-07T12:28:27.731Z,14.19
2019-02-07T12:29:27.840Z,14.80
2019-02-07T12:30:27.850Z,16.60
2019-02-07T12:31:27.753Z,14.69
2019-02-07T12:32:27.766Z,13.80
2019-02-07T12:33:27.770Z,15.60
2019-02-07T12:34:27.780Z,15.80
2019-02-07T12:35:27.785Z,13.69
2019-02-07T12:36:27.789Z,14.60
2019-02-07T12:37:27.793Z,15.30
2019-02-07T12:38:27.797Z,14.10
2019-02-07T12:39:27.800Z,15.60
2019-02-07T12:40:27.809Z,14.80
2019-02-07T12:41:27.818Z,15.00
2019-02-07T12:42:27.829Z,15.30
2019-02-07T12:43:27.844Z,14.39
2019-02-07T12:44:27.861Z,14.39
2019-02-07T12:45:27.869Z,15.60
2019-02-07T12:46:27.985Z,14.69
2019-02-07T12:47:27.904Z,14.50
2019-02-07T12:48:28.198Z,15.19
2019-02-07T12:49:29.513Z,15.00
2019-02-07T12:50:27.951Z,15.10
2019-02-07T12:51:27.962Z,14.69
2019-02-07T12:52:27.980Z,16.10
2019-02-07T12:53:27.994Z,15.00
2019-02-07T12:54:28.005Z,14.60
2019-02-07T12:55:28.020Z,15.69
2019-02-07T12:56:28.034Z,16.89
2019-02-07T12:57:28.053Z,14.89
2019-02-07T12:58:28.066Z,15.00
2019-02-07T12:59:28.083Z,14.89
2019-02-07T13:00:28.091Z,14.60
2019-02-07T13:01:28.110Z,15.60
2019-02-07T13:02:28.132Z,13.50
2019-02-07T13:03:28.495Z,16.00
2019-02-07T13:32:43.984Z,39.09
2019-02-07T13:33:43.722Z,36.59
2019-02-07T13:34:43.727Z,25.20
2019-02-07T13:35:43.759Z,23.89
2019-02-07T13:36:43.694Z,23.89
2019-02-07T13:37:43.795Z,20.89
2019-02-07T13:38:43.672Z,89.59
2019-02-07T13:39:43.683Z,108.50
2019-02-07T13:40:43.650Z,109.50
2019-02-07T13:41:43.652Z,107.40
2019-02-07T13:42:43.630Z,113.40
2019-02-07T13:43:43.622Z,81.69
2019-02-07T13:44:43.607Z,112.30
2019-02-07T13:45:43.662Z,107.69
2019-02-07T13:46:43.591Z,111.30
2019-02-07T13:47:43.583Z,108.50
2019-02-07T13:48:44.026Z,102.19
2019-02-07T13:49:51.642Z,112.90
2019-02-07T13:50:44.650Z,110.80
2019-02-07T13:51:43.533Z,107.80
2019-02-07T13:52:43.541Z,113.90
2019-02-07T13:53:43.511Z,127.59
2019-02-07T13:54:43.500Z,115.40
2019-02-07T13:55:43.488Z,121.90
2019-02-07T13:56:43.479Z,108.80
2019-02-07T13:57:43.471Z,119.40
2019-02-07T13:58:43.457Z,120.00
2019-02-07T13:59:45.453Z,114.09
2019-02-07T14:00:43.441Z,120.00
2019-02-07T14:01:43.426Z,110.19
2019-02-07T14:02:43.417Z,118.50
2019-02-07T14:03:43.415Z,118.09
2019-02-07T14:04:43.399Z,122.90
2019-02-07T14:05:43.387Z,129.10
2019-02-07T14:06:43.372Z,129.50
2019-02-07T14:07:43.363Z,134.39
2019-02-07T14:08:43.357Z,137.19
2019-02-07T14:09:43.343Z,164.69
2019-02-07T14:10:43.337Z,165.89
2019-02-07T14:11:43.322Z,159.00
2019-02-07T14:12:43.316Z,169.39
2019-02-07T14:13:43.300Z,153.39
2019-02-07T14:14:43.292Z,153.60
2019-02-07T14:15:43.276Z,165.69
2019-02-07T14:16:43.267Z,147.39
2019-02-07T14:17:43.256Z,137.80
2019-02-07T14:18:43.252Z,153.10
2019-02-07T14:19:43.231Z,147.80
2019-02-07T14:20:43.221Z,147.89
2019-02-07T14:21:43.210Z,139.00
2019-02-07T14:22:43.206Z,149.69
2019-02-07T14:23:43.188Z,146.30
2019-02-07T14:24:43.182Z,150.00
2019-02-07T14:25:43.181Z,152.10
2019-02-07T14:26:43.163Z,150.50
2019-02-07T14:27:43.151Z,147.80
2019-02-07T14:28:43.139Z,139.60
2019-02-07T14:29:43.123Z,147.60
2019-02-07T14:30:43.117Z,153.69
2019-02-07T14:31:43.101Z,155.19
2019-02-07T14:32:43.090Z,144.39
2019-02-07T14:33:43.486Z,156.39
2019-02-07T14:34:43.075Z,155.69
2019-02-07T14:35:43.062Z,162.10
2019-02-07T14:36:45.544Z,159.19
2019-02-07T14:37:43.038Z,162.60
2019-02-07T14:38:43.028Z,158.30
2019-02-07T14:39:43.017Z,162.39
2019-02-07T14:40:43.004Z,158.69
2019-02-07T14:41:42.993Z,160.80
2019-02-07T14:42:42.983Z,162.80
2019-02-07T14:43:42.973Z,149.69
2019-02-07T14:44:42.961Z,166.00
2019-02-07T14:45:42.954Z,186.69
2019-02-07T14:46:42.943Z,197.60
2019-02-07T14:47:42.931Z,195.30
2019-02-07T14:48:45.194Z,194.50
2019-02-07T14:49:42.910Z,235.89
2019-02-07T14:50:42.896Z,214.89
2019-02-07T14:51:42.885Z,239.19
2019-02-07T14:52:42.875Z,265.20
2019-02-07T14:53:42.863Z,235.60
2019-02-07T14:54:42.864Z,274.29
2019-02-07T14:55:42.847Z,267.79
2019-02-07T14:56:42.843Z,273.50
2019-02-07T14:57:42.823Z,269.10
2019-02-07T14:58:42.812Z,255.89
2019-02-07T14:59:42.805Z,262.50
2019-02-07T15:00:42.790Z,272.00
2019-02-07T15:01:42.778Z,251.80
2019-02-07T15:02:42.868Z,260.20
2019-02-07T15:03:42.761Z,241.80
2019-02-07T15:04:42.749Z,230.30
2019-02-07T15:05:42.737Z,231.80
2019-02-07T15:06:42.728Z,221.89
2019-02-07T15:07:42.714Z,214.10
2019-02-07T15:08:42.705Z,211.39
2019-02-07T15:09:42.695Z,218.50
2019-02-07T15:10:42.683Z,218.69
2019-02-07T15:11:42.772Z,211.39
2019-02-07T15:12:42.673Z,219.60
2019-02-07T15:13:42.656Z,236.10
2019-02-07T15:14:42.639Z,232.10
2019-02-07T15:15:42.632Z,225.80
2019-02-07T15:16:42.624Z,235.00
2019-02-07T15:17:42.605Z,244.69
2019-02-07T15:18:42.606Z,242.10
2019-02-07T15:19:42.611Z,232.30
2019-02-07T15:20:42.627Z,239.69
2019-02-07T15:21:42.569Z,223.10
2019-02-07T15:22:42.557Z,209.19
2019-02-07T15:23:42.543Z,220.80
2019-02-07T15:24:42.538Z,236.30
2019-02-07T15:25:42.525Z,219.80
2019-02-07T15:26:42.515Z,237.00
2019-02-07T15:27:42.587Z,272.20
2019-02-07T15:28:42.490Z,282.89
2019-02-07T15:29:42.479Z,267.60
2019-02-07T15:30:42.466Z,264.10
2019-02-07T15:31:42.457Z,260.39
2019-02-07T15:32:42.450Z,257.10
2019-02-07T15:33:42.439Z,249.50
2019-02-07T15:34:42.673Z,265.50
2019-02-07T15:35:42.413Z,271.20
2019-02-07T15:36:42.404Z,276.20
2019-02-07T15:37:42.393Z,284.79